Time;durP1;ratioP1;P1;durP2;ratioP2;P2;SDS_P1;SDS_P2;PMS_P1;PMS_P2;Temp;Humidity;BMP_temperature;BMP_pressure;BME280_temperature;BME280_humidity;BME280_pressure;Samples;Min_cycle;Max_cycle;Signal;HPM_P1;HPM_P2
2022/03/09 00:01:18;;;;;;;9.43;4.87;;;-1.70;99.90;;;;;;4159476;28;20304;-69
2022/03/09 00:03:20;;;;;;;10.43;5.20;;;-1.70;99.90;;;;;;4158536;28;20262;-60
2022/03/09 00:05:21;;;;;;;10.53;4.80;;;-1.80;99.90;;;;;;4141266;28;20279;-62
2022/03/09 00:07:22;;;;;;;11.03;5.27;;;-1.80;99.90;;;;;;4143440;28;20283;-49
2022/03/09 00:09:24;;;;;;;9.33;4.57;;;-1.80;99.90;;;;;;4143654;28;20279;-52
2022/03/09 00:11:26;;;;;;;9.87;4.97;;;-1.80;99.90;;;;;;4142870;28;20683;-55
2022/03/09 00:13:27;;;;;;;11.23;4.67;;;-1.80;99.90;;;;;;4143497;28;20294;-75
2022/03/09 00:15:28;;;;;;;9.67;4.93;;;-1.90;99.90;;;;;;4201711;22;20987;-52
2022/03/09 00:17:29;;;;;;;11.73;5.73;;;-1.90;99.90;;;;;;4173241;28;20316;-48
2022/03/09 00:19:30;;;;;;;11.17;5.67;;;-1.90;99.90;;;;;;4176248;28;20270;-58
2022/03/09 00:21:31;;;;;;;12.00;5.53;;;-1.90;99.90;;;;;;4160188;28;20279;-46
2022/03/09 00:23:33;;;;;;;10.07;4.73;;;-1.90;99.90;;;;;;4160827;28;20336;-64
2022/03/09 00:25:34;;;;;;;7.40;4.17;;;-1.90;99.90;;;;;;4158192;28;20262;-71
2022/03/09 00:27:35;;;;;;;7.28;4.07;;;-1.90;99.90;;;;;;4159279;28;20279;-68
2022/03/09 00:29:36;;;;;;;12.20;5.20;;;-2.00;99.90;;;;;;4160257;28;20843;-57
2022/03/09 00:31:38;;;;;;;7.90;4.53;;;-2.00;99.90;;;;;;4171496;28;20305;-67
2022/03/09 00:33:39;;;;;;;9.90;5.27;;;-1.90;99.90;;;;;;4175194;28;20258;-65
2022/03/09 00:35:40;;;;;;;11.00;5.20;;;-1.90;99.90;;;;;;4175156;28;21102;-58
2022/03/09 00:37:41;;;;;;;10.60;4.90;;;-1.90;99.90;;;;;;4175451;28;20328;-67
2022/03/09 00:39:42;;;;;;;9.43;4.43;;;-1.90;99.90;;;;;;4174905;28;20324;-70
2022/03/09 00:41:43;;;;;;;8.00;4.43;;;-1.90;99.90;;;;;;4175541;28;20687;-52
2022/03/09 00:43:44;;;;;;;14.67;6.03;;;-1.90;99.90;;;;;;4175023;28;20282;-59
2022/03/09 00:45:46;;;;;;;8.37;4.70;;;-1.90;99.90;;;;;;4175492;28;20371;-68
2022/03/09 00:47:48;;;;;;;9.73;4.67;;;-1.90;99.90;;;;;;4174223;28;20811;-64
2022/03/09 00:49:49;;;;;;;10.73;6.00;;;-1.90;99.90;;;;;;4172391;28;20278;-65
2022/03/09 00:51:50;;;;;;;8.73;4.57;;;-1.90;99.90;;;;;;4172378;22;20295;-67
2022/03/09 00:53:51;;;;;;;6.77;3.97;;;-1.90;99.90;;;;;;4175098;28;20278;-64
2022/03/09 00:55:52;;;;;;;10.43;4.93;;;-1.90;99.90;;;;;;4172368;28;20724;-62
2022/03/09 00:57:53;;;;;;;8.50;4.23;;;-1.90;99.90;;;;;;4175078;28;20258;-56
2022/03/09 00:59:54;;;;;;;8.90;4.33;;;-1.80;99.90;;;;;;4174204;28;20336;-52
2022/03/09 01:01:55;;;;;;;9.33;4.60;;;-1.80;99.90;;;;;;4173496;28;20324;-58
2022/03/09 01:03:56;;;;;;;10.23;4.60;;;-1.90;99.90;;;;;;4172914;28;20266;-52
2022/03/09 01:08:08;;;;;;;9.80;5.37;;;-1.80;99.90;;;;;;4174061;28;20313;-63
2022/03/09 01:10:09;;;;;;;11.50;5.57;;;-1.80;99.90;;;;;;4177948;28;20269;-64
2022/03/09 01:12:12;;;;;;;10.37;5.33;;;-1.80;99.90;;;;;;4192010;28;20261;-51
2022/03/09 01:14:13;;;;;;;10.20;4.83;;;-1.80;99.90;;;;;;4189884;28;20745;-48
2022/03/09 01:16:14;;;;;;;10.37;4.47;;;-1.80;99.90;;;;;;4172570;28;20359;-52
2022/03/09 01:18:16;;;;;;;9.97;4.63;;;-1.80;99.90;;;;;;4172158;28;20266;-61
2022/03/09 01:20:17;;;;;;;10.27;4.93;;;-1.80;99.90;;;;;;4190013;28;20782;-53
2022/03/09 01:22:18;;;;;;;11.47;4.90;;;-1.80;99.90;;;;;;4190590;28;20261;-62
2022/03/09 01:24:19;;;;;;;10.83;5.10;;;-1.80;99.90;;;;;;4173500;28;20286;-63
2022/03/09 01:28:22;;;;;;;12.03;4.90;;;-1.70;99.90;;;;;;4160982;22;20845;-61
2022/03/09 01:30:23;;;;;;;8.60;5.03;;;-1.70;99.90;;;;;;4157178;28;20421;-58
2022/03/09 01:32:24;;;;;;;10.20;5.40;;;-1.70;99.90;;;;;;4163875;28;20275;-61
2022/03/09 01:34:25;;;;;;;10.03;4.83;;;-1.70;99.90;;;;;;4155175;28;20771;-41
2022/03/09 01:36:26;;;;;;;8.67;5.00;;;-1.70;99.90;;;;;;4174681;28;20270;-55
2022/03/09 01:38:28;;;;;;;8.10;4.60;;;-1.70;99.90;;;;;;4155522;28;20775;-56
2022/03/09 01:40:29;;;;;;;8.17;4.00;;;-1.60;99.90;;;;;;4161839;28;20275;-46
2022/03/09 01:42:30;;;;;;;10.90;4.60;;;-1.60;99.90;;;;;;4157091;28;20344;-66
2022/03/09 01:44:31;;;;;;;5.87;3.80;;;-1.60;99.90;;;;;;4157494;28;21096;-44
2022/03/09 01:46:35;;;;;;;9.80;4.37;;;-1.60;99.90;;;;;;4156385;28;20329;-58
2022/03/09 01:48:36;;;;;;;7.70;4.07;;;-1.60;99.90;;;;;;4157785;28;20286;-49
2022/03/09 01:50:38;;;;;;;8.67;4.60;;;-1.60;99.90;;;;;;4156641;28;20262;-53
2022/03/09 01:52:41;;;;;;;7.83;3.93;;;-1.60;99.90;;;;;;4157984;28;20283;-63
2022/03/09 01:54:42;;;;;;;7.23;4.10;;;-1.50;99.90;;;;;;4157419;28;20294;-67
2022/03/09 01:56:44;;;;;;;8.53;4.33;;;-1.50;99.90;;;;;;4137914;28;20280;-42
2022/03/09 01:58:45;;;;;;;9.73;4.23;;;-1.50;99.90;;;;;;4157543;28;20271;-45
2022/03/09 02:00:46;;;;;;;8.43;4.63;;;-1.50;99.90;;;;;;4156440;28;20675;-62
2022/03/09 02:02:47;;;;;;;8.80;4.27;;;-1.50;99.90;;;;;;4158322;28;20263;-67
2022/03/09 02:04:50;;;;;;;8.07;3.93;;;-1.50;99.90;;;;;;4157119;28;20333;-67
2022/03/09 02:06:51;;;;;;;8.37;4.13;;;-1.60;99.90;;;;;;4160499;28;20328;-67
2022/03/09 02:11:12;;;;;;;8.80;4.25;;;-1.50;99.90;;;;;;4158124;28;20294;-65
2022/03/09 02:13:14;;;;;;;8.23;3.83;;;-1.50;99.90;;;;;;4159565;28;20402;-62
2022/03/09 02:15:16;;;;;;;10.27;4.43;;;-1.50;99.90;;;;;;4173065;28;20266;-49
2022/03/09 02:17:24;;;;;;;7.73;4.70;;;-1.50;99.90;;;;;;4163924;28;20317;-68
2022/03/09 02:21:58;;;;;;;11.20;4.27;;;-1.50;99.90;;;;;;4201436;22;20847;-48
2022/03/09 02:23:59;;;;;;;6.27;3.67;;;-1.60;99.90;;;;;;4189653;28;20323;-56
2022/03/09 02:26:00;;;;;;;9.77;4.60;;;-1.60;99.90;;;;;;4189737;28;20807;-42
2022/03/09 02:28:01;;;;;;;8.03;4.30;;;-1.60;99.90;;;;;;4189254;28;21345;-57
2022/03/09 02:30:03;;;;;;;9.20;3.73;;;-1.60;99.90;;;;;;4188009;28;20810;-48
2022/03/09 02:32:05;;;;;;;8.33;4.27;;;-1.60;99.90;;;;;;4189197;28;20286;-53
2022/03/09 02:34:06;;;;;;;9.43;5.13;;;-1.60;99.90;;;;;;4189541;28;20265;-59
2022/03/09 02:36:07;;;;;;;7.07;4.40;;;-1.60;99.90;;;;;;4190067;28;20315;-48
2022/03/09 02:38:09;;;;;;;9.43;4.50;;;-1.60;99.90;;;;;;4188922;28;20833;-62
2022/03/09 02:40:12;;;;;;;9.63;4.00;;;-1.50;99.90;;;;;;4188955;28;20771;-48
2022/03/09 02:42:14;;;;;;;7.90;4.70;;;-1.60;99.90;;;;;;4172903;28;20335;-54
2022/03/09 02:44:15;;;;;;;7.63;4.47;;;-1.50;99.90;;;;;;4173661;28;20752;-64
2022/03/09 02:46:16;;;;;;;7.00;4.17;;;-1.50;99.90;;;;;;4188791;28;20696;-72
2022/03/09 02:48:17;;;;;;;8.60;5.13;;;-1.50;99.90;;;;;;4185999;28;20277;-43
2022/03/09 02:50:18;;;;;;;9.47;4.37;;;-1.50;99.90;;;;;;4189323;28;20265;-52
2022/03/09 02:52:19;;;;;;;11.87;4.87;;;-1.50;99.90;;;;;;4189548;28;20297;-59
2022/03/09 02:54:21;;;;;;;8.73;4.67;;;-1.60;99.90;;;;;;4189996;28;20311;-64
2022/03/09 02:56:22;;;;;;;8.63;4.43;;;-1.60;99.90;;;;;;4172130;28;20297;-47
2022/03/09 02:58:24;;;;;;;9.97;4.03;;;-1.70;99.90;;;;;;4189055;28;20261;-50
2022/03/09 03:00:25;;;;;;;8.53;3.80;;;-1.70;99.90;;;;;;4189322;28;20265;-66
2022/03/09 03:02:26;;;;;;;8.80;4.90;;;-1.70;99.90;;;;;;4170354;28;20278;-68
2022/03/09 03:04:27;;;;;;;9.33;5.00;;;-1.60;99.90;;;;;;4172770;28;21192;-75
2022/03/09 03:06:28;;;;;;;7.60;4.67;;;-1.70;99.90;;;;;;4174280;28;20270;-50
2022/03/09 03:08:30;;;;;;;8.80;4.30;;;-1.70;99.90;;;;;;4172690;28;20274;-65
2022/03/09 03:10:31;;;;;;;11.23;4.43;;;-1.70;99.90;;;;;;4175390;28;20681;-60
2022/03/09 03:12:33;;;;;;;8.07;3.87;;;-1.70;99.90;;;;;;4189654;28;20289;-64
2022/03/09 03:14:34;;;;;;;8.43;4.77;;;-1.80;99.90;;;;;;4190456;28;20261;-65
2022/03/09 03:16:35;;;;;;;11.73;5.37;;;-1.80;99.90;;;;;;4188861;28;20598;-57
2022/03/09 03:18:37;;;;;;;11.80;5.63;;;-1.80;99.90;;;;;;4171821;28;20324;-68
2022/03/09 03:20:38;;;;;;;11.13;5.40;;;-1.80;99.90;;;;;;4170957;28;20282;-45
2022/03/09 03:22:39;;;;;;;7.97;4.67;;;-1.80;99.90;;;;;;4193046;28;20315;-48
2022/03/09 03:24:41;;;;;;;6.90;4.20;;;-1.80;99.90;;;;;;4192646;28;21078;-64
2022/03/09 03:26:42;;;;;;;10.03;4.97;;;-1.80;99.90;;;;;;4193336;28;20273;-57
2022/03/09 03:28:43;;;;;;;8.40;4.60;;;-1.90;99.90;;;;;;4192398;28;20262;-46
2022/03/09 03:30:45;;;;;;;9.20;4.83;;;-1.90;99.90;;;;;;4192786;28;20323;-62
2022/03/09 03:32:46;;;;;;;8.13;4.90;;;-1.90;99.90;;;;;;4181779;28;20274;-82
2022/03/09 03:34:47;;;;;;;13.10;5.90;;;-1.90;99.90;;;;;;4173953;28;20332;-49
2022/03/09 03:36:48;;;;;;;11.70;5.97;;;-1.90;99.90;;;;;;4190970;22;20309;-67
2022/03/09 03:38:49;;;;;;;12.70;7.73;;;-1.90;99.90;;;;;;4175838;28;20270;-47
2022/03/09 03:40:50;;;;;;;18.10;8.10;;;-1.90;99.90;;;;;;4176157;28;20270;-65
2022/03/09 03:42:51;;;;;;;14.23;6.07;;;-2.00;99.90;;;;;;4176078;28;20688;-46
2022/03/09 03:44:53;;;;;;;11.03;7.37;;;-2.00;99.90;;;;;;4175374;28;20742;-48
2022/03/09 03:46:54;;;;;;;11.00;5.90;;;-2.10;99.90;;;;;;4158137;28;20275;-76
2022/03/09 03:48:56;;;;;;;7.67;4.43;;;-2.10;99.90;;;;;;4174639;28;20327;-57
2022/03/09 03:53:08;;;;;;;;;;;-2.20;99.90;;;;;;4375280;23;20301;-52
2022/03/09 03:55:09;;;;;;;;;;;-2.10;99.90;;;;;;4181556;28;19912;-61
2022/03/09 03:57:10;;;;;;;7.00;3.92;;;-2.10;99.90;;;;;;4193229;28;19904;-53
2022/03/09 03:59:12;;;;;;;11.47;4.63;;;-2.10;99.90;;;;;;4191355;28;20427;-66
2022/03/09 04:01:13;;;;;;;13.27;5.20;;;-2.10;99.90;;;;;;4173989;28;20286;-69
2022/03/09 04:03:14;;;;;;;12.00;5.27;;;-2.10;99.90;;;;;;4172874;28;20266;-57
2022/03/09 04:05:15;;;;;;;13.27;5.97;;;-2.10;99.90;;;;;;4174201;28;20286;-63
2022/03/09 04:07:17;;;;;;;8.27;5.03;;;-2.10;99.90;;;;;;4192023;28;20825;-60
2022/03/09 04:09:18;;;;;;;12.73;5.03;;;-2.10;99.90;;;;;;4191964;28;20314;-64
2022/03/09 04:11:20;;;;;;;10.17;4.97;;;-2.10;99.90;;;;;;4192577;28;20354;-51
2022/03/09 04:13:21;;;;;;;15.03;6.00;;;-2.10;99.90;;;;;;4191269;28;20303;-58
2022/03/09 04:15:22;;;;;;;15.07;5.10;;;-2.00;99.90;;;;;;4174290;28;20308;-56
2022/03/09 04:17:23;;;;;;;14.73;5.40;;;-2.10;99.90;;;;;;4365204;22;20317;-59
2022/03/09 04:19:25;;;;;;;10.73;5.40;;;-2.00;99.90;;;;;;4191269;28;20269;-76
2022/03/09 04:21:26;;;;;;;8.67;4.60;;;-2.10;99.90;;;;;;4183441;28;20285;-71
2022/03/09 04:23:27;;;;;;;14.83;5.57;;;-2.10;99.90;;;;;;4175917;28;20725;-63
2022/03/09 04:25:29;;;;;;;11.23;5.73;;;-2.10;99.90;;;;;;4176136;28;20323;-64
2022/03/09 04:27:30;;;;;;;11.23;5.83;;;-2.10;99.90;;;;;;4175536;28;20270;-47
2022/03/09 04:29:32;;;;;;;10.30;5.23;;;-2.10;99.90;;;;;;4174979;28;20270;-56
2022/03/09 04:31:33;;;;;;;10.70;5.23;;;-2.10;99.90;;;;;;4185035;28;20297;-65
2022/03/09 04:33:36;;;;;;;10.40;4.80;;;-2.10;99.90;;;;;;4190410;28;20386;-51
2022/03/09 04:35:37;;;;;;;8.33;4.23;;;-2.10;99.90;;;;;;4191762;28;20273;-53
2022/03/09 04:37:38;;;;;;;7.00;3.73;;;-2.10;99.90;;;;;;4172552;28;20278;-66
2022/03/09 04:39:40;;;;;;;8.23;4.23;;;-2.10;99.90;;;;;;4176199;28;20265;-80
2022/03/09 04:41:42;;;;;;;8.37;4.10;;;-2.10;99.90;;;;;;4174814;28;20282;-64
2022/03/09 04:43:43;;;;;;;7.47;4.10;;;-2.10;99.90;;;;;;4176339;28;21035;-52
2022/03/09 04:45:44;;;;;;;11.33;4.70;;;-2.10;99.90;;;;;;4175565;28;20305;-63
2022/03/09 04:47:45;;;;;;;9.97;4.77;;;-2.10;99.90;;;;;;4175383;28;20336;-49
2022/03/09 04:49:47;;;;;;;11.97;4.70;;;-2.10;99.90;;;;;;4189015;28;20729;-60
2022/03/09 04:51:48;;;;;;;8.40;4.30;;;-2.10;99.90;;;;;;4186188;28;20297;-66
2022/03/09 04:53:49;;;;;;;7.70;4.20;;;-2.10;99.90;;;;;;4173440;28;20270;-63
2022/03/09 04:55:50;;;;;;;8.23;4.53;;;-2.00;99.90;;;;;;4174738;28;20319;-62
2022/03/09 04:57:51;;;;;;;9.00;4.70;;;-2.00;99.90;;;;;;4173625;28;20351;-54
2022/03/09 04:59:53;;;;;;;10.93;5.07;;;-2.00;99.90;;;;;;4190124;28;20277;-62
2022/03/09 05:01:54;;;;;;;9.47;4.80;;;-2.10;99.90;;;;;;4183402;28;20315;-68
2022/03/09 05:03:55;;;;;;;8.97;4.23;;;-2.00;99.90;;;;;;4169400;28;20278;-70
2022/03/09 05:05:56;;;;;;;8.37;4.00;;;-2.00;99.90;;;;;;4188966;28;20311;-72
2022/03/09 05:07:57;;;;;;;7.70;4.30;;;-1.90;99.90;;;;;;4190605;28;20275;-55
2022/03/09 05:09:59;;;;;;;11.17;4.60;;;-1.90;99.90;;;;;;4191674;28;20261;-48
2022/03/09 05:12:01;;;;;;;7.27;4.23;;;-1.90;99.90;;;;;;4190432;28;20293;-56
2022/03/09 05:14:02;;;;;;;8.80;4.23;;;-2.00;99.90;;;;;;4192098;28;20300;-58
2022/03/09 05:16:05;;;;;;;7.10;4.17;;;-1.90;99.90;;;;;;4190851;28;20274;-66
2022/03/09 05:18:06;;;;;;;10.03;4.27;;;-1.90;99.90;;;;;;4190554;28;20312;-83
2022/03/09 05:20:09;;;;;;;9.30;4.13;;;-1.90;99.90;;;;;;4192458;28;20277;-76
2022/03/09 05:22:10;;;;;;;9.50;4.87;;;-1.80;99.90;;;;;;4190480;28;20265;-49
2022/03/09 05:24:11;;;;;;;8.60;4.87;;;-1.60;99.90;;;;;;4190094;28;20285;-63
2022/03/09 05:26:12;;;;;;;10.27;4.97;;;-1.20;99.90;;;;;;4191554;28;20273;-65
2022/03/09 05:28:13;;;;;;;6.60;4.40;;;-0.90;99.90;;;;;;4177325;28;20675;-51
2022/03/09 05:30:14;;;;;;;11.93;5.83;;;-0.90;99.90;;;;;;4173314;28;20332;-63
2022/03/09 05:32:15;;;;;;;8.87;4.57;;;-1.00;99.90;;;;;;4174325;28;20291;-65
2022/03/09 05:34:17;;;;;;;20.30;5.77;;;-1.10;99.90;;;;;;4172657;28;20290;-83
2022/03/09 05:36:18;;;;;;;12.90;5.13;;;-1.20;99.90;;;;;;4182718;28;20282;-62
2022/03/09 05:38:19;;;;;;;11.13;4.80;;;-1.20;99.90;;;;;;4182340;28;20281;-62
2022/03/09 05:40:20;;;;;;;9.60;4.87;;;-1.20;99.90;;;;;;4191028;28;20285;-46
2022/03/09 05:42:21;;;;;;;9.50;5.13;;;-1.20;99.90;;;;;;4181278;28;20255;-66
2022/03/09 05:44:23;;;;;;;15.13;6.27;;;-1.20;99.90;;;;;;4185895;28;20278;-47
2022/03/09 05:46:24;;;;;;;15.60;6.97;;;-1.10;99.90;;;;;;4184840;28;20690;-62
2022/03/09 05:48:25;;;;;;;13.87;6.20;;;-1.10;99.90;;;;;;4179901;28;20269;-54
2022/03/09 05:50:26;;;;;;;9.87;5.17;;;-0.90;99.90;;;;;;4519960;22;20853;-62
2022/03/09 05:52:27;;;;;;;13.67;5.13;;;-0.30;99.90;;;;;;4189654;28;20774;-65
2022/03/09 05:54:28;;;;;;;13.17;5.33;;;0.40;99.70;;;;;;4189520;28;20293;-42
2022/03/09 05:56:30;;;;;;;7.80;4.77;;;0.90;98.50;;;;;;4172284;28;20254;-65
2022/03/09 05:58:31;;;;;;;15.60;6.70;;;1.60;98.00;;;;;;4185115;28;20276;-63
2022/03/09 06:00:32;;;;;;;12.50;5.80;;;2.30;97.30;;;;;;4189534;28;20938;-55
2022/03/09 06:02:34;;;;;;;9.50;4.93;;;2.80;95.70;;;;;;4177129;28;20282;-61
2022/03/09 06:04:35;;;;;;;10.87;5.20;;;3.30;95.90;;;;;;4173671;28;20310;-46
2022/03/09 06:06:36;;;;;;;12.47;5.97;;;4.00;95.00;;;;;;4181594;28;20311;-63
2022/03/09 06:08:37;;;;;;;17.37;10.20;;;4.70;94.10;;;;;;4171993;28;20336;-50
2022/03/09 06:10:38;;;;;;;20.47;10.50;;;5.10;92.60;;;;;;4188140;28;20327;-48
2022/03/09 06:12:39;;;;;;;18.10;8.97;;;5.50;91.80;;;;;;4178173;28;20289;-61
2022/03/09 06:14:40;;;;;;;18.90;7.87;;;6.10;91.70;;;;;;4173238;28;20616;-56
2022/03/09 06:16:41;;;;;;;15.93;6.17;;;6.70;90.60;;;;;;4173777;28;20311;-60
2022/03/09 06:18:46;;;;;;;13.80;6.63;;;7.00;89.90;;;;;;4173999;28;20343;-73
2022/03/09 06:20:48;;;;;;;13.43;5.83;;;7.30;86.40;;;;;;4174204;28;20339;-49
2022/03/09 06:22:49;;;;;;;10.87;5.63;;;7.20;82.10;;;;;;4172705;28;20037;-58
2022/03/09 06:24:50;;;;;;;12.00;6.33;;;7.40;83.00;;;;;;4173659;28;20083;-50
2022/03/09 06:26:53;;;;;;;15.03;6.30;;;7.50;81.70;;;;;;4173468;28;20043;-58
2022/03/09 06:28:54;;;;;;;9.93;5.50;;;7.70;79.90;;;;;;4176983;28;20066;-56
2022/03/09 06:30:55;;;;;;;11.33;5.07;;;8.10;78.80;;;;;;4188095;28;20090;-67
2022/03/09 06:32:57;;;;;;;13.97;6.40;;;8.10;77.40;;;;;;4188955;28;20036;-63
2022/03/09 06:34:58;;;;;;;11.40;5.20;;;8.40;77.30;;;;;;4190066;28;20094;-62
2022/03/09 06:36:59;;;;;;;12.07;5.07;;;8.70;75.20;;;;;;4188896;28;20041;-69
2022/03/09 06:39:00;;;;;;;8.40;4.50;;;8.50;73.20;;;;;;4188930;28;20110;-51
2022/03/09 06:41:02;;;;;;;12.63;5.03;;;8.20;72.20;;;;;;4188372;28;20450;-64
2022/03/09 06:43:03;;;;;;;7.00;3.90;;;7.70;71.90;;;;;;4189179;28;20048;-49
2022/03/09 06:45:05;;;;;;;27.20;13.00;;;7.20;71.80;;;;;;4187659;28;20429;-59
2022/03/09 06:47:06;;;;;;;28.50;13.87;;;6.90;71.20;;;;;;4190266;28;20067;-57
2022/03/09 06:51:47;;;;;;;14.60;8.13;;;6.50;72.40;;;;;;4171249;28;20098;-51
2022/03/09 06:53:48;;;;;;;14.57;7.10;;;6.00;71.50;;;;;;4172199;28;20037;-53
2022/03/09 06:55:50;;;;;;;10.43;6.23;;;5.80;72.50;;;;;;4173318;28;20319;-59
2022/03/09 06:57:51;;;;;;;9.77;5.30;;;5.80;72.80;;;;;;4175971;28;20270;-50
2022/03/09 06:59:52;;;;;;;9.90;5.90;;;5.90;72.40;;;;;;4176128;28;20324;-62
2022/03/09 07:01:53;;;;;;;10.33;4.27;;;5.90;72.60;;;;;;4175721;28;20285;-59
2022/03/09 07:03:54;;;;;;;9.13;4.40;;;5.90;71.60;;;;;;4174059;28;20455;-58
2022/03/09 07:05:55;;;;;;;10.57;4.20;;;5.90;70.80;;;;;;4173187;28;20387;-59
2022/03/09 07:07:56;;;;;;;8.60;5.07;;;5.80;70.50;;;;;;4173318;28;20816;-44
2022/03/09 07:09:58;;;;;;;8.87;3.90;;;5.60;70.70;;;;;;4173864;28;20332;-49
2022/03/09 07:14:09;;;;;;;10.50;2.97;;;4.90;71.20;;;;;;4159954;28;20715;-72
2022/03/09 07:16:10;;;;;;;4.17;3.10;;;4.90;70.90;;;;;;4158723;28;20482;-66
2022/03/09 07:18:11;;;;;;;8.67;2.50;;;5.10;70.70;;;;;;4142292;28;20260;-49
2022/03/09 07:20:14;;;;;;;7.03;2.73;;;5.40;70.30;;;;;;4159567;28;20340;-53
2022/03/09 07:22:15;;;;;;;8.43;3.50;;;5.70;69.20;;;;;;4159850;28;20328;-55
2022/03/09 07:24:17;;;;;;;9.20;3.60;;;5.60;68.90;;;;;;4159899;28;20318;-54
2022/03/09 07:26:18;;;;;;;3.80;2.20;;;5.70;68.60;;;;;;4160689;28;20278;-58
2022/03/09 07:28:19;;;;;;;6.13;3.40;;;5.80;67.80;;;;;;4158741;28;20329;-54
2022/03/09 07:30:20;;;;;;;6.43;4.00;;;5.80;67.30;;;;;;4160331;28;20263;-50
2022/03/09 07:32:21;;;;;;;9.37;3.33;;;5.70;67.20;;;;;;4158370;28;20290;-49
2022/03/09 07:34:23;;;;;;;7.73;2.90;;;4.90;65.30;;;;;;4159150;28;20309;-45
2022/03/09 07:36:24;;;;;;;5.33;2.70;;;4.30;66.70;;;;;;4141004;28;20322;-51
2022/03/09 07:38:25;;;;;;;8.20;2.83;;;3.90;68.00;;;;;;4159071;28;20317;-56
2022/03/09 07:40:26;;;;;;;4.30;2.60;;;4.10;69.50;;;;;;4159198;28;20263;-68
2022/03/09 07:42:27;;;;;;;2.90;2.43;;;4.50;69.60;;;;;;4158987;28;20971;-40
2022/03/09 07:44:29;;;;;;;5.90;2.17;;;4.60;68.60;;;;;;4317512;22;20311;-61
2022/03/09 07:46:30;;;;;;;9.57;3.20;;;4.20;67.60;;;;;;4224971;28;20275;-58
2022/03/09 07:48:32;;;;;;;6.40;3.00;;;3.70;68.30;;;;;;4223538;28;20269;-65
2022/03/09 07:50:33;;;;;;;4.77;2.50;;;3.70;69.00;;;;;;4225195;28;20805;-62
2022/03/09 07:52:35;;;;;;;6.70;3.23;;;3.50;68.90;;;;;;4225549;28;20357;-47
2022/03/09 07:54:36;;;;;;;3.53;2.50;;;3.70;69.60;;;;;;4225785;28;21329;-52
2022/03/09 07:56:38;;;;;;;6.13;2.73;;;4.20;68.90;;;;;;4225304;28;20596;-66
2022/03/09 07:58:39;;;;;;;8.80;3.57;;;4.10;69.00;;;;;;4206766;28;20277;-60
2022/03/09 08:00:41;;;;;;;5.67;2.23;;;4.40;69.30;;;;;;4223926;28;20276;-62
2022/03/09 08:02:42;;;;;;;2.30;1.10;;;4.50;66.20;;;;;;4224881;28;20753;-60
2022/03/09 08:04:43;;;;;;;7.27;1.77;;;4.00;64.40;;;;;;4224481;28;20756;-56
2022/03/09 08:06:44;;;;;;;6.90;2.50;;;3.40;64.40;;;;;;4225516;28;20276;-58
2022/03/09 08:08:46;;;;;;;10.73;2.70;;;3.20;66.70;;;;;;4222884;28;20277;-60
2022/03/09 08:10:47;;;;;;;6.60;2.70;;;3.30;68.60;;;;;;4225553;28;20336;-54
2022/03/09 08:12:48;;;;;;;4.10;2.17;;;3.30;68.70;;;;;;4224556;28;20279;-60
2022/03/09 08:14:49;;;;;;;3.70;2.37;;;3.40;69.20;;;;;;4225670;28;20732;-63
2022/03/09 08:16:51;;;;;;;5.37;2.43;;;3.60;68.80;;;;;;4205249;28;20282;-49
2022/03/09 08:18:52;;;;;;;3.23;1.77;;;3.90;68.90;;;;;;4225678;28;20272;-56
2022/03/09 08:20:53;;;;;;;1.87;1.17;;;3.30;65.40;;;;;;4224557;28;20285;-63
2022/03/09 08:22:54;;;;;;;7.37;2.50;;;2.50;65.10;;;;;;4224627;28;20328;-68
2022/03/09 08:24:55;;;;;;;6.13;2.10;;;2.10;67.40;;;;;;4224955;28;20732;-75
2022/03/09 08:26:56;;;;;;;3.53;1.63;;;2.10;68.60;;;;;;4205862;28;20664;-68
2022/03/09 08:28:58;;;;;;;2.10;1.40;;;2.20;68.90;;;;;;4225025;28;20880;-51
2022/03/09 08:30:59;;;;;;;4.47;1.87;;;2.50;68.40;;;;;;4224462;28;20248;-58
2022/03/09 08:33:00;;;;;;;3.13;1.50;;;3.10;68.80;;;;;;4225932;28;20288;-62
2022/03/09 08:35:01;;;;;;;5.93;2.10;;;3.00;65.10;;;;;;4224296;28;20333;-72
2022/03/09 08:37:02;;;;;;;3.33;2.30;;;2.90;65.50;;;;;;4224772;28;20329;-68
2022/03/09 08:39:04;;;;;;;4.57;2.00;;;2.60;65.80;;;;;;4223104;28;20335;-61
2022/03/09 08:41:05;;;;;;;6.57;2.03;;;2.30;66.90;;;;;;4224083;28;20682;-59
2022/03/09 08:43:06;;;;;;;2.83;1.33;;;2.30;67.70;;;;;;4224579;28;20275;-55
2022/03/09 08:45:08;;;;;;;2.57;1.63;;;2.50;67.00;;;;;;4224806;28;20284;-55
2022/03/09 08:47:09;;;;;;;6.40;1.97;;;2.70;64.90;;;;;;4223782;28;20333;-53
2022/03/09 08:49:10;;;;;;;7.27;2.03;;;2.60;63.80;;;;;;4224593;28;20268;-44
2022/03/09 08:51:12;;;;;;;2.43;1.20;;;2.40;65.10;;;;;;4223822;28;20732;-49
2022/03/09 08:53:14;;;;;;;4.57;1.57;;;2.40;65.90;;;;;;4223997;28;20759;-60
2022/03/09 08:55:15;;;;;;;4.27;1.73;;;2.30;65.60;;;;;;4224376;28;20289;-62
2022/03/09 08:57:16;;;;;;;2.57;1.57;;;2.40;65.40;;;;;;4223702;28;20248;-51
2022/03/09 08:59:17;;;;;;;3.70;1.60;;;2.60;65.30;;;;;;4224261;28;20380;-57
2022/03/09 09:01:18;;;;;;;3.57;1.10;;;2.60;65.60;;;;;;4223747;28;20264;-57
2022/03/09 09:03:20;;;;;;;2.50;1.60;;;2.60;64.70;;;;;;4295824;22;20285;-60
2022/03/09 09:07:32;;;;;;;;;;;2.20;64.60;;;;;;4255778;22;20878;-64
2022/03/09 09:09:34;;;;;;;;;;;2.40;65.40;;;;;;4190714;28;19920;-43
2022/03/09 09:11:35;;;;;;;7.00;1.93;;;2.50;65.00;;;;;;4191053;28;19953;-58
2022/03/09 09:13:36;;;;;;;18.33;3.10;;;2.50;65.30;;;;;;4189903;28;20346;-59
2022/03/09 09:15:38;;;;;;;7.00;1.50;;;2.30;64.20;;;;;;4190110;28;20288;-67
2022/03/09 09:17:39;;;;;;;32.23;5.73;;;2.30;65.50;;;;;;4190073;28;20947;-49
2022/03/09 09:19:40;;;;;;;42.23;5.70;;;2.40;65.50;;;;;;4190823;28;20384;-47
2022/03/09 09:21:42;;;;;;;12.03;3.33;;;2.50;66.20;;;;;;4189839;28;20311;-59
2022/03/09 09:23:43;;;;;;;4.73;1.63;;;2.70;65.00;;;;;;4190172;28;20269;-49
2022/03/09 09:25:45;;;;;;;5.77;2.07;;;2.60;64.40;;;;;;4190360;28;21644;-57
2022/03/09 09:27:46;;;;;;;26.43;5.00;;;2.50;65.00;;;;;;4205084;22;20370;-60
2022/03/09 09:29:48;;;;;;;11.90;3.67;;;2.50;65.40;;;;;;4189884;28;20390;-59
2022/03/09 09:31:49;;;;;;;11.70;3.10;;;2.60;65.60;;;;;;4190953;28;20273;-55
2022/03/09 09:33:50;;;;;;;3.10;1.40;;;2.80;65.60;;;;;;4189419;28;20354;-62
2022/03/09 09:35:51;;;;;;;4.77;1.77;;;3.00;64.40;;;;;;4190014;28;20257;-45
2022/03/09 09:37:53;;;;;;;6.40;2.27;;;3.00;63.00;;;;;;4190340;28;20254;-50
2022/03/09 09:39:54;;;;;;;6.53;2.57;;;3.10;62.30;;;;;;4188940;28;20347;-64
2022/03/09 09:41:56;;;;;;;9.17;1.93;;;3.10;63.10;;;;;;4190681;28;20319;-52
2022/03/09 09:43:58;;;;;;;4.17;2.50;;;3.20;65.20;;;;;;4190256;28;20743;-50
2022/03/09 09:45:59;;;;;;;3.70;2.53;;;3.20;66.40;;;;;;4190364;28;20771;-59
2022/03/09 09:48:02;;;;;;;6.03;2.10;;;3.20;66.90;;;;;;4188637;28;20387;-53
2022/03/09 09:50:06;;;;;;;3.97;1.60;;;3.10;67.10;;;;;;4189291;28;20330;-49
2022/03/09 09:52:08;;;;;;;6.33;2.10;;;3.10;67.30;;;;;;4189258;28;20291;-78
2022/03/09 09:54:10;;;;;;;13.80;4.07;;;3.10;67.70;;;;;;4173006;28;20332;-66
2022/03/09 09:56:15;;;;;;;7.53;2.20;;;3.10;67.60;;;;;;4189077;28;20269;-58
2022/03/09 09:58:19;;;;;;;7.60;2.17;;;3.20;67.90;;;;;;4190883;28;20327;-49
2022/03/09 10:00:20;;;;;;;5.63;1.80;;;3.30;67.40;;;;;;4189004;28;20253;-50
2022/03/09 10:02:22;;;;;;;4.13;2.23;;;3.50;65.30;;;;;;4189747;28;20265;-59
2022/03/09 10:04:23;;;;;;;3.00;1.77;;;3.20;64.50;;;;;;4189141;28;20327;-48
2022/03/09 10:06:24;;;;;;;3.33;1.67;;;3.00;65.20;;;;;;4189412;28;20311;-59
2022/03/09 10:08:25;;;;;;;3.33;1.87;;;3.10;65.80;;;;;;4188740;28;20269;-53
2022/03/09 10:10:26;;;;;;;4.23;2.00;;;3.20;66.20;;;;;;4188235;28;20273;-49
2022/03/09 10:12:28;;;;;;;4.80;1.70;;;3.30;64.80;;;;;;4190132;28;20376;-46
2022/03/09 10:14:46;;;;;;;10.50;2.53;;;2.90;65.90;;;;;;4188676;28;20315;-52
2022/03/09 10:17:05;;;;;;;3.73;1.90;;;2.40;67.10;;;;;;4189309;28;20319;-51
2022/03/09 10:19:06;;;;;;;20.63;4.87;;;2.30;67.90;;;;;;4188843;28;20318;-60
2022/03/09 10:21:11;;;;;;;56.97;7.10;;;2.30;68.60;;;;;;4189437;28;20720;-59
2022/03/09 10:23:13;;;;;;;34.37;6.13;;;2.20;68.80;;;;;;4188839;28;20273;-53
2022/03/09 10:25:18;;;;;;;16.57;3.20;;;2.20;68.80;;;;;;4190093;28;20720;-61
2022/03/09 10:27:36;;;;;;;12.47;3.33;;;2.20;68.50;;;;;;4188231;28;20327;-59
2022/03/09 10:29:37;;;;;;;2.40;1.70;;;2.30;67.40;;;;;;4189707;28;20303;-61
2022/03/09 10:31:43;;;;;;;10.07;2.50;;;2.30;65.00;;;;;;4187796;28;20819;-60
2022/03/09 10:33:44;;;;;;;6.80;1.67;;;2.40;64.50;;;;;;4190215;28;20281;-52
2022/03/09 10:35:49;;;;;;;10.27;2.40;;;2.50;65.60;;;;;;4188972;28;20269;-70
2022/03/09 10:37:50;;;;;;;2.70;1.60;;;2.60;64.50;;;;;;4189700;28;20269;-72
2022/03/09 10:39:51;;;;;;;2.97;1.53;;;2.70;63.40;;;;;;4188378;28;20273;-64
2022/03/09 10:41:52;;;;;;;4.13;2.00;;;2.60;63.20;;;;;;4189538;28;20327;-65
2022/03/09 10:43:53;;;;;;;2.93;1.67;;;2.70;63.20;;;;;;4188773;28;20352;-70
2022/03/09 10:46:10;;;;;;;18.20;3.70;;;3.00;64.00;;;;;;4190285;28;20634;-46
2022/03/09 10:48:11;;;;;;;11.63;2.30;;;3.20;63.60;;;;;;4188444;28;20319;-49
2022/03/09 10:50:21;;;;;;;5.80;2.53;;;3.20;64.20;;;;;;4189523;28;20764;-66
2022/03/09 10:53:01;;;;;;;5.47;1.98;;;3.30;64.60;;;;;;4188220;28;20295;-75